sensor_id;sensor_type;location;lat;lon;timestamp;temperature;humidity
56268;DHT22;42175;46.930;9.532;2023-01-01T00:01:11;23.20;43.60
56268;DHT22;42175;46.930;9.532;2023-01-01T00:03:37;23.20;43.60
56268;DHT22;42175;46.930;9.532;2023-01-01T00:06:07;23.20;43.60
56268;DHT22;42175;46.930;9.532;2023-01-01T00:08:34;23.20;43.60
56268;DHT22;42175;46.930;9.532;2023-01-01T00:11:04;23.20;43.60
56268;DHT22;42175;46.930;9.532;2023-01-01T00:13:30;23.30;44.20
56268;DHT22;42175;46.930;9.532;2023-01-01T00:16:02;23.30;43.00
56268;DHT22;42175;46.930;9.532;2023-01-01T00:18:28;23.30;42.30
56268;DHT22;42175;46.930;9.532;2023-01-01T00:21:10;23.20;42.00
56268;DHT22;42175;46.930;9.532;2023-01-01T00:23:37;23.20;42.20
56268;DHT22;42175;46.930;9.532;2023-01-01T00:26:10;23.20;42.50
56268;DHT22;42175;46.930;9.532;2023-01-01T00:28:36;23.10;42.60
56268;DHT22;42175;46.930;9.532;2023-01-01T00:31:13;23.10;42.60
56268;DHT22;42175;46.930;9.532;2023-01-01T00:33:39;23.10;42.70
56268;DHT22;42175;46.930;9.532;2023-01-01T00:36:13;23.10;42.60
56268;DHT22;42175;46.930;9.532;2023-01-01T00:38:40;23.20;42.60
56268;DHT22;42175;46.930;9.532;2023-01-01T00:41:06;23.10;42.40
56268;DHT22;42175;46.930;9.532;2023-01-01T00:43:32;23.10;42.50
56268;DHT22;42175;46.930;9.532;2023-01-01T00:45:58;23.10;42.50
56268;DHT22;42175;46.930;9.532;2023-01-01T00:48:24;23.10;42.60
56268;DHT22;42175;46.930;9.532;2023-01-01T00:50:51;23.20;42.70
56268;DHT22;42175;46.930;9.532;2023-01-01T00:53:18;23.10;42.60
56268;DHT22;42175;46.930;9.532;2023-01-01T00:55:43;23.10;42.70
56268;DHT22;42175;46.930;9.532;2023-01-01T00:58:10;23.10;42.60
56268;DHT22;42175;46.930;9.532;2023-01-01T01:00:36;23.10;42.60
56268;DHT22;42175;46.930;9.532;2023-01-01T01:03:03;23.10;42.70
56268;DHT22;42175;46.930;9.532;2023-01-01T01:05:29;23.10;42.50
56268;DHT22;42175;46.930;9.532;2023-01-01T01:07:56;23.20;42.70
56268;DHT22;42175;46.930;9.532;2023-01-01T01:10:22;23.10;42.60
56268;DHT22;42175;46.930;9.532;2023-01-01T01:12:53;23.10;42.70
56268;DHT22;42175;46.930;9.532;2023-01-01T01:15:19;23.10;42.70
56268;DHT22;42175;46.930;9.532;2023-01-01T01:17:45;23.20;42.90
56268;DHT22;42175;46.930;9.532;2023-01-01T01:20:11;23.10;42.20
56268;DHT22;42175;46.930;9.532;2023-01-01T01:22:38;23.10;41.60
56268;DHT22;42175;46.930;9.532;2023-01-01T01:25:05;23.10;41.00
56268;DHT22;42175;46.930;9.532;2023-01-01T01:27:31;23.10;40.90
56268;DHT22;42175;46.930;9.532;2023-01-01T01:29:56;23.10;40.60
56268;DHT22;42175;46.930;9.532;2023-01-01T01:32:22;23.10;40.40
56268;DHT22;42175;46.930;9.532;2023-01-01T01:34:48;23.10;40.20
56268;DHT22;42175;46.930;9.532;2023-01-01T01:37:13;23.10;40.00
56268;DHT22;42175;46.930;9.532;2023-01-01T01:39:39;23.10;40.00
56268;DHT22;42175;46.930;9.532;2023-01-01T01:42:05;23.10;39.60
56268;DHT22;42175;46.930;9.532;2023-01-01T01:50:10;23.10;39.20
56268;DHT22;42175;46.930;9.532;2023-01-01T01:52:40;23.00;39.20
56268;DHT22;42175;46.930;9.532;2023-01-01T01:55:08;23.00;39.00
56268;DHT22;42175;46.930;9.532;2023-01-01T01:57:35;23.00;38.90
56268;DHT22;42175;46.930;9.532;2023-01-01T02:00:02;23.00;38.80
56268;DHT22;42175;46.930;9.532;2023-01-01T02:02:47;23.00;38.80
56268;DHT22;42175;46.930;9.532;2023-01-01T02:05:16;23.00;38.60
56268;DHT22;42175;46.930;9.532;2023-01-01T02:07:43;23.00;38.50
56268;DHT22;42175;46.930;9.532;2023-01-01T02:10:09;22.90;38.70
56268;DHT22;42175;46.930;9.532;2023-01-01T02:12:35;23.00;38.60
56268;DHT22;42175;46.930;9.532;2023-01-01T02:15:01;22.90;38.60
56268;DHT22;42175;46.930;9.532;2023-01-01T02:17:32;22.90;38.50
56268;DHT22;42175;46.930;9.532;2023-01-01T02:20:22;23.00;38.40
56268;DHT22;42175;46.930;9.532;2023-01-01T02:23:08;22.90;38.40
56268;DHT22;42175;46.930;9.532;2023-01-01T02:29:02;22.90;38.40
56268;DHT22;42175;46.930;9.532;2023-01-01T02:31:37;22.90;38.40
56268;DHT22;42175;46.930;9.532;2023-01-01T02:34:06;22.90;38.50
56268;DHT22;42175;46.930;9.532;2023-01-01T02:36:39;22.90;38.40
56268;DHT22;42175;46.930;9.532;2023-01-01T02:39:08;22.90;38.40
56268;DHT22;42175;46.930;9.532;2023-01-01T02:41:43;22.90;38.40
56268;DHT22;42175;46.930;9.532;2023-01-01T02:44:11;22.80;38.30
56268;DHT22;42175;46.930;9.532;2023-01-01T02:46:37;22.90;38.40
56268;DHT22;42175;46.930;9.532;2023-01-01T02:49:03;22.80;38.30
56268;DHT22;42175;46.930;9.532;2023-01-01T02:57:07;22.80;38.10
56268;DHT22;42175;46.930;9.532;2023-01-01T03:05:10;22.80;37.80
56268;DHT22;42175;46.930;9.532;2023-01-01T03:07:53;22.80;37.90
56268;DHT22;42175;46.930;9.532;2023-01-01T03:10:49;22.80;37.80
56268;DHT22;42175;46.930;9.532;2023-01-01T03:19:20;22.90;37.80
56268;DHT22;42175;46.930;9.532;2023-01-01T03:21:52;22.80;37.70
56268;DHT22;42175;46.930;9.532;2023-01-01T03:24:35;22.80;37.60
56268;DHT22;42175;46.930;9.532;2023-01-01T03:27:25;22.80;37.60
56268;DHT22;42175;46.930;9.532;2023-01-01T03:29:55;22.80;37.50
56268;DHT22;42175;46.930;9.532;2023-01-01T03:32:26;22.80;37.50
56268;DHT22;42175;46.930;9.532;2023-01-01T03:35:15;22.80;37.60
56268;DHT22;42175;46.930;9.532;2023-01-01T03:37:44;22.80;37.50
56268;DHT22;42175;46.930;9.532;2023-01-01T03:40:12;22.80;37.60
56268;DHT22;42175;46.930;9.532;2023-01-01T03:42:40;22.80;37.50
56268;DHT22;42175;46.930;9.532;2023-01-01T03:45:32;22.80;37.50
56268;DHT22;42175;46.930;9.532;2023-01-01T03:47:59;22.80;37.40
56268;DHT22;42175;46.930;9.532;2023-01-01T03:50:49;22.70;37.60
56268;DHT22;42175;46.930;9.532;2023-01-01T03:53:35;22.70;37.50
56268;DHT22;42175;46.930;9.532;2023-01-01T03:56:27;22.70;37.30
56268;DHT22;42175;46.930;9.532;2023-01-01T03:59:21;22.70;37.50
56268;DHT22;42175;46.930;9.532;2023-01-01T04:01:52;22.80;37.60
56268;DHT22;42175;46.930;9.532;2023-01-01T04:04:21;22.70;37.40
56268;DHT22;42175;46.930;9.532;2023-01-01T04:06:47;22.70;37.40
56268;DHT22;42175;46.930;9.532;2023-01-01T04:09:16;22.80;37.10
56268;DHT22;42175;46.930;9.532;2023-01-01T04:11:45;22.70;37.30
56268;DHT22;42175;46.930;9.532;2023-01-01T04:14:34;22.70;37.20
56268;DHT22;42175;46.930;9.532;2023-01-01T04:17:01;22.70;37.40
56268;DHT22;42175;46.930;9.532;2023-01-01T04:19:27;22.60;37.40
56268;DHT22;42175;46.930;9.532;2023-01-01T04:21:53;22.70;37.60
56268;DHT22;42175;46.930;9.532;2023-01-01T04:24:19;22.70;37.70
56268;DHT22;42175;46.930;9.532;2023-01-01T04:26:45;22.70;37.80
56268;DHT22;42175;46.930;9.532;2023-01-01T04:29:11;22.70;37.70
56268;DHT22;42175;46.930;9.532;2023-01-01T04:31:37;22.70;37.90
56268;DHT22;42175;46.930;9.532;2023-01-01T04:34:02;22.80;37.90
56268;DHT22;42175;46.930;9.532;2023-01-01T04:36:28;22.70;37.90
56268;DHT22;42175;46.930;9.532;2023-01-01T04:38:54;22.70;38.00
56268;DHT22;42175;46.930;9.532;2023-01-01T04:41:19;22.70;38.00
56268;DHT22;42175;46.930;9.532;2023-01-01T04:43:48;22.70;38.00
56268;DHT22;42175;46.930;9.532;2023-01-01T04:46:19;22.70;38.30
56268;DHT22;42175;46.930;9.532;2023-01-01T04:48:45;22.70;38.30
56268;DHT22;42175;46.930;9.532;2023-01-01T04:51:13;22.70;38.40
56268;DHT22;42175;46.930;9.532;2023-01-01T04:53:39;22.70;38.50
56268;DHT22;42175;46.930;9.532;2023-01-01T04:56:10;22.80;38.40
56268;DHT22;42175;46.930;9.532;2023-01-01T04:58:37;22.70;38.40
56268;DHT22;42175;46.930;9.532;2023-01-01T05:01:04;22.70;38.60
56268;DHT22;42175;46.930;9.532;2023-01-01T05:03:30;22.70;38.70
56268;DHT22;42175;46.930;9.532;2023-01-01T05:06:06;22.70;38.80
56268;DHT22;42175;46.930;9.532;2023-01-01T05:08:33;22.80;38.70
56268;DHT22;42175;46.930;9.532;2023-01-01T05:11:05;22.70;38.70
56268;DHT22;42175;46.930;9.532;2023-01-01T05:13:33;22.70;38.80
56268;DHT22;42175;46.930;9.532;2023-01-01T05:16:02;22.80;38.80
56268;DHT22;42175;46.930;9.532;2023-01-01T05:18:28;22.80;39.00
56268;DHT22;42175;46.930;9.532;2023-01-01T05:21:03;22.80;38.90
56268;DHT22;42175;46.930;9.532;2023-01-01T05:23:29;22.70;38.80
56268;DHT22;42175;46.930;9.532;2023-01-01T05:25:56;22.70;38.90
56268;DHT22;42175;46.930;9.532;2023-01-01T05:28:22;22.80;38.90
56268;DHT22;42175;46.930;9.532;2023-01-01T05:30:52;22.80;38.90
56268;DHT22;42175;46.930;9.532;2023-01-01T05:33:19;22.80;39.00
56268;DHT22;42175;46.930;9.532;2023-01-01T05:35:45;22.80;39.10
56268;DHT22;42175;46.930;9.532;2023-01-01T05:38:10;22.70;39.00
56268;DHT22;42175;46.930;9.532;2023-01-01T05:40:39;22.80;39.00
56268;DHT22;42175;46.930;9.532;2023-01-01T05:43:06;22.80;39.00
56268;DHT22;42175;46.930;9.532;2023-01-01T05:45:32;22.80;39.00
56268;DHT22;42175;46.930;9.532;2023-01-01T05:47:58;22.70;39.00
56268;DHT22;42175;46.930;9.532;2023-01-01T05:50:23;22.70;39.10
56268;DHT22;42175;46.930;9.532;2023-01-01T05:52:49;22.70;39.10
56268;DHT22;42175;46.930;9.532;2023-01-01T05:55:15;22.80;39.20
56268;DHT22;42175;46.930;9.532;2023-01-01T05:57:41;22.80;39.10
56268;DHT22;42175;46.930;9.532;2023-01-01T06:00:07;22.70;39.10
56268;DHT22;42175;46.930;9.532;2023-01-01T06:02:32;22.80;39.30
56268;DHT22;42175;46.930;9.532;2023-01-01T06:04:58;22.80;39.10
56268;DHT22;42175;46.930;9.532;2023-01-01T06:07:24;22.70;39.10
56268;DHT22;42175;46.930;9.532;2023-01-01T06:09:49;22.70;39.00
56268;DHT22;42175;46.930;9.532;2023-01-01T06:12:16;22.70;39.10
56268;DHT22;42175;46.930;9.532;2023-01-01T06:14:41;22.80;39.20
56268;DHT22;42175;46.930;9.532;2023-01-01T06:17:07;22.80;39.20
56268;DHT22;42175;46.930;9.532;2023-01-01T06:19:33;22.80;39.30
56268;DHT22;42175;46.930;9.532;2023-01-01T06:21:58;22.80;39.30
56268;DHT22;42175;46.930;9.532;2023-01-01T06:24:24;22.80;39.40
56268;DHT22;42175;46.930;9.532;2023-01-01T06:26:50;22.80;39.20
56268;DHT22;42175;46.930;9.532;2023-01-01T06:29:15;22.80;39.30
56268;DHT22;42175;46.930;9.532;2023-01-01T06:31:41;22.80;40.00
56268;DHT22;42175;46.930;9.532;2023-01-01T06:34:07;22.80;39.30
56268;DHT22;42175;46.930;9.532;2023-01-01T06:36:33;22.80;39.40
56268;DHT22;42175;46.930;9.532;2023-01-01T06:38:59;22.80;39.40
56268;DHT22;42175;46.930;9.532;2023-01-01T06:41:26;22.80;39.30
56268;DHT22;42175;46.930;9.532;2023-01-01T06:43:54;22.80;39.20
56268;DHT22;42175;46.930;9.532;2023-01-01T06:46:24;22.80;39.20
56268;DHT22;42175;46.930;9.532;2023-01-01T06:48:58;22.70;39.20
56268;DHT22;42175;46.930;9.532;2023-01-01T06:51:26;22.70;39.30
56268;DHT22;42175;46.930;9.532;2023-01-01T06:53:52;22.70;39.30
56268;DHT22;42175;46.930;9.532;2023-01-01T06:56:19;22.70;39.50
56268;DHT22;42175;46.930;9.532;2023-01-01T06:58:45;22.80;39.40
56268;DHT22;42175;46.930;9.532;2023-01-01T07:03:43;22.70;39.50
56268;DHT22;42175;46.930;9.532;2023-01-01T07:06:09;22.80;39.60
56268;DHT22;42175;46.930;9.532;2023-01-01T07:08:35;22.70;39.60
56268;DHT22;42175;46.930;9.532;2023-01-01T07:11:02;22.70;39.60
56268;DHT22;42175;46.930;9.532;2023-01-01T07:13:29;22.70;39.60
56268;DHT22;42175;46.930;9.532;2023-01-01T07:15:56;22.70;39.70
56268;DHT22;42175;46.930;9.532;2023-01-01T07:18:23;22.80;39.60
56268;DHT22;42175;46.930;9.532;2023-01-01T07:20:54;22.70;39.70
56268;DHT22;42175;46.930;9.532;2023-01-01T07:23:20;22.70;39.50
56268;DHT22;42175;46.930;9.532;2023-01-01T07:25:48;22.70;39.70
56268;DHT22;42175;46.930;9.532;2023-01-01T07:28:14;22.70;39.90
56268;DHT22;42175;46.930;9.532;2023-01-01T07:30:40;22.80;40.00
56268;DHT22;42175;46.930;9.532;2023-01-01T07:33:13;22.70;40.00
56268;DHT22;42175;46.930;9.532;2023-01-01T07:35:40;22.70;39.90
56268;DHT22;42175;46.930;9.532;2023-01-01T07:38:06;22.70;39.90
56268;DHT22;42175;46.930;9.532;2023-01-01T07:40:32;22.80;39.90
56268;DHT22;42175;46.930;9.532;2023-01-01T07:42:57;22.70;39.90
56268;DHT22;42175;46.930;9.532;2023-01-01T07:45:24;22.70;40.00
56268;DHT22;42175;46.930;9.532;2023-01-01T07:47:55;22.80;39.90
56268;DHT22;42175;46.930;9.532;2023-01-01T07:50:23;22.80;39.80
56268;DHT22;42175;46.930;9.532;2023-01-01T07:52:49;22.80;39.90
56268;DHT22;42175;46.930;9.532;2023-01-01T07:55:17;22.70;40.00
56268;DHT22;42175;46.930;9.532;2023-01-01T07:57:43;22.70;38.30
56268;DHT22;42175;46.930;9.532;2023-01-01T08:00:11;22.40;36.80
56268;DHT22;42175;46.930;9.532;2023-01-01T08:02:38;22.20;37.50
56268;DHT22;42175;46.930;9.532;2023-01-01T08:05:04;22.10;37.00
56268;DHT22;42175;46.930;9.532;2023-01-01T08:07:30;22.00;36.60
56268;DHT22;42175;46.930;9.532;2023-01-01T08:09:55;21.70;37.00
56268;DHT22;42175;46.930;9.532;2023-01-01T08:12:21;21.50;37.60
56268;DHT22;42175;46.930;9.532;2023-01-01T08:14:47;21.70;38.40
56268;DHT22;42175;46.930;9.532;2023-01-01T08:17:12;21.80;39.60
56268;DHT22;42175;46.930;9.532;2023-01-01T08:19:38;21.90;40.20
56268;DHT22;42175;46.930;9.532;2023-01-01T08:22:04;22.00;40.40
56268;DHT22;42175;46.930;9.532;2023-01-01T08:24:29;22.10;40.90
56268;DHT22;42175;46.930;9.532;2023-01-01T08:26:55;22.10;41.20
56268;DHT22;42175;46.930;9.532;2023-01-01T08:29:21;22.20;41.30
56268;DHT22;42175;46.930;9.532;2023-01-01T08:31:46;22.20;41.30
56268;DHT22;42175;46.930;9.532;2023-01-01T08:34:12;22.30;41.40
56268;DHT22;42175;46.930;9.532;2023-01-01T08:36:38;22.30;41.30
56268;DHT22;42175;46.930;9.532;2023-01-01T08:39:07;22.30;41.40
56268;DHT22;42175;46.930;9.532;2023-01-01T08:41:34;22.30;41.70
56268;DHT22;42175;46.930;9.532;2023-01-01T08:44:00;22.40;42.00
56268;DHT22;42175;46.930;9.532;2023-01-01T08:46:26;22.40;42.10
56268;DHT22;42175;46.930;9.532;2023-01-01T08:48:51;22.40;42.30
56268;DHT22;42175;46.930;9.532;2023-01-01T08:51:18;22.50;42.20
56268;DHT22;42175;46.930;9.532;2023-01-01T08:53:43;22.50;42.10
56268;DHT22;42175;46.930;9.532;2023-01-01T08:56:11;22.50;42.10
56268;DHT22;42175;46.930;9.532;2023-01-01T08:58:38;22.50;42.00
56268;DHT22;42175;46.930;9.532;2023-01-01T09:01:05;22.60;41.70
56268;DHT22;42175;46.930;9.532;2023-01-01T09:03:32;22.70;41.60
56268;DHT22;42175;46.930;9.532;2023-01-01T09:05:58;22.70;41.70
56268;DHT22;42175;46.930;9.532;2023-01-01T09:08:23;22.70;41.80
56268;DHT22;42175;46.930;9.532;2023-01-01T09:10:49;22.80;42.10
56268;DHT22;42175;46.930;9.532;2023-01-01T09:13:19;22.70;42.30
56268;DHT22;42175;46.930;9.532;2023-01-01T09:15:45;22.70;42.40
56268;DHT22;42175;46.930;9.532;2023-01-01T09:18:12;22.70;42.60
56268;DHT22;42175;46.930;9.532;2023-01-01T09:20:38;22.70;42.70
56268;DHT22;42175;46.930;9.532;2023-01-01T09:23:05;22.80;42.80
56268;DHT22;42175;46.930;9.532;2023-01-01T09:25:32;22.80;42.80
56268;DHT22;42175;46.930;9.532;2023-01-01T09:27:59;22.80;42.90
56268;DHT22;42175;46.930;9.532;2023-01-01T09:30:25;22.80;42.90
56268;DHT22;42175;46.930;9.532;2023-01-01T09:32:51;22.80;43.00
56268;DHT22;42175;46.930;9.532;2023-01-01T09:35:17;22.90;43.00
56268;DHT22;42175;46.930;9.532;2023-01-01T09:37:44;22.90;43.10
56268;DHT22;42175;46.930;9.532;2023-01-01T09:46:04;22.90;43.20
56268;DHT22;42175;46.930;9.532;2023-01-01T09:48:32;22.90;43.20
56268;DHT22;42175;46.930;9.532;2023-01-01T09:51:01;22.90;43.20
56268;DHT22;42175;46.930;9.532;2023-01-01T09:53:35;23.00;43.30
56268;DHT22;42175;46.930;9.532;2023-01-01T09:56:04;23.00;43.30
56268;DHT22;42175;46.930;9.532;2023-01-01T09:58:35;23.00;43.30
56268;DHT22;42175;46.930;9.532;2023-01-01T10:01:25;23.10;43.30
56268;DHT22;42175;46.930;9.532;2023-01-01T10:04:16;23.00;43.30
56268;DHT22;42175;46.930;9.532;2023-01-01T10:12:28;23.10;43.40
56268;DHT22;42175;46.930;9.532;2023-01-01T10:15:17;23.10;43.50
56268;DHT22;42175;46.930;9.532;2023-01-01T10:17:47;23.00;39.40
56268;DHT22;42175;46.930;9.532;2023-01-01T10:20:26;22.90;38.60
56268;DHT22;42175;46.930;9.532;2023-01-01T10:23:02;22.90;38.20
56268;DHT22;42175;46.930;9.532;2023-01-01T10:25:30;22.80;37.70
56268;DHT22;42175;46.930;9.532;2023-01-01T10:28:34;22.80;38.20
56268;DHT22;42175;46.930;9.532;2023-01-01T10:31:34;22.90;40.40
56268;DHT22;42175;46.930;9.532;2023-01-01T10:34:22;23.00;41.40
56268;DHT22;42175;46.930;9.532;2023-01-01T10:36:57;23.00;42.40
56268;DHT22;42175;46.930;9.532;2023-01-01T10:39:24;23.00;43.00
56268;DHT22;42175;46.930;9.532;2023-01-01T10:41:50;23.00;43.30
56268;DHT22;42175;46.930;9.532;2023-01-01T10:44:30;23.10;43.50
56268;DHT22;42175;46.930;9.532;2023-01-01T10:46:58;23.10;43.70
56268;DHT22;42175;46.930;9.532;2023-01-01T10:49:24;23.10;43.80
56268;DHT22;42175;46.930;9.532;2023-01-01T10:51:51;23.10;43.70
56268;DHT22;42175;46.930;9.532;2023-01-01T10:54:39;23.10;43.70
56268;DHT22;42175;46.930;9.532;2023-01-01T10:59:53;23.20;43.80
56268;DHT22;42175;46.930;9.532;2023-01-01T11:02:26;23.20;43.80
56268;DHT22;42175;46.930;9.532;2023-01-01T11:05:17;23.30;43.90
56268;DHT22;42175;46.930;9.532;2023-01-01T11:07:43;23.20;44.00
56268;DHT22;42175;46.930;9.532;2023-01-01T11:10:24;23.20;44.00
56268;DHT22;42175;46.930;9.532;2023-01-01T11:12:50;23.30;44.10
56268;DHT22;42175;46.930;9.532;2023-01-01T11:15:40;23.30;44.80
56268;DHT22;42175;46.930;9.532;2023-01-01T11:20:37;23.40;44.40
56268;DHT22;42175;46.930;9.532;2023-01-01T11:23:22;23.40;44.40
56268;DHT22;42175;46.930;9.532;2023-01-01T11:28:33;23.40;43.40
56268;DHT22;42175;46.930;9.532;2023-01-01T11:33:33;23.30;42.10
56268;DHT22;42175;46.930;9.532;2023-01-01T11:36:00;23.30;42.40
56268;DHT22;42175;46.930;9.532;2023-01-01T11:38:26;23.40;42.80
56268;DHT22;42175;46.930;9.532;2023-01-01T11:40:54;23.40;43.10
56268;DHT22;42175;46.930;9.532;2023-01-01T11:43:23;23.40;43.00
56268;DHT22;42175;46.930;9.532;2023-01-01T11:45:50;23.40;43.10
56268;DHT22;42175;46.930;9.532;2023-01-01T11:48:31;23.50;43.10
56268;DHT22;42175;46.930;9.532;2023-01-01T11:51:06;23.50;42.80
56268;DHT22;42175;46.930;9.532;2023-01-01T11:53:40;23.50;42.90
56268;DHT22;42175;46.930;9.532;2023-01-01T11:56:16;23.40;42.70
56268;DHT22;42175;46.930;9.532;2023-01-01T11:59:02;23.40;42.10
56268;DHT22;42175;46.930;9.532;2023-01-01T12:07:09;23.20;42.70
56268;DHT22;42175;46.930;9.532;2023-01-01T12:09:47;23.20;42.30
56268;DHT22;42175;46.930;9.532;2023-01-01T12:15:34;23.20;41.60
56268;DHT22;42175;46.930;9.532;2023-01-01T12:18:03;23.10;41.30
56268;DHT22;42175;46.930;9.532;2023-01-01T12:20:42;23.10;41.00
56268;DHT22;42175;46.930;9.532;2023-01-01T12:23:10;23.10;40.90
56268;DHT22;42175;46.930;9.532;2023-01-01T12:25:56;23.10;41.10
56268;DHT22;42175;46.930;9.532;2023-01-01T12:28:39;23.10;41.20
56268;DHT22;42175;46.930;9.532;2023-01-01T12:31:24;23.10;41.10
56268;DHT22;42175;46.930;9.532;2023-01-01T12:39:58;23.10;40.30
56268;DHT22;42175;46.930;9.532;2023-01-01T12:45:33;23.10;39.60
56268;DHT22;42175;46.930;9.532;2023-01-01T13:01:07;23.10;41.00
56268;DHT22;42175;46.930;9.532;2023-01-01T13:03:48;23.10;41.20
56268;DHT22;42175;46.930;9.532;2023-01-01T13:06:17;23.10;41.40
56268;DHT22;42175;46.930;9.532;2023-01-01T13:08:48;23.10;41.60
56268;DHT22;42175;46.930;9.532;2023-01-01T13:11:15;23.10;41.80
56268;DHT22;42175;46.930;9.532;2023-01-01T13:13:42;23.20;41.90
56268;DHT22;42175;46.930;9.532;2023-01-01T13:16:10;23.20;42.10
56268;DHT22;42175;46.930;9.532;2023-01-01T13:18:37;23.20;41.80
56268;DHT22;42175;46.930;9.532;2023-01-01T13:23:42;23.30;41.60
56268;DHT22;42175;46.930;9.532;2023-01-01T13:34:30;23.40;41.80
56268;DHT22;42175;46.930;9.532;2023-01-01T13:42:41;23.40;42.00
56268;DHT22;42175;46.930;9.532;2023-01-01T13:45:24;23.40;42.00
56268;DHT22;42175;46.930;9.532;2023-01-01T13:50:39;23.40;42.50
56268;DHT22;42175;46.930;9.532;2023-01-01T13:53:31;23.40;43.00
56268;DHT22;42175;46.930;9.532;2023-01-01T14:01:47;23.40;44.10
56268;DHT22;42175;46.930;9.532;2023-01-01T14:06:54;23.30;44.10
56268;DHT22;42175;46.930;9.532;2023-01-01T14:09:20;23.30;44.40
56268;DHT22;42175;46.930;9.532;2023-01-01T14:11:46;23.30;44.30
56268;DHT22;42175;46.930;9.532;2023-01-01T14:14:25;23.30;44.30
56268;DHT22;42175;46.930;9.532;2023-01-01T14:16:58;23.30;44.50
56268;DHT22;42175;46.930;9.532;2023-01-01T14:19:25;23.30;44.60
56268;DHT22;42175;46.930;9.532;2023-01-01T14:21:52;23.30;45.00
56268;DHT22;42175;46.930;9.532;2023-01-01T14:24:21;23.30;45.00
56268;DHT22;42175;46.930;9.532;2023-01-01T14:26:47;23.30;45.40
56268;DHT22;42175;46.930;9.532;2023-01-01T14:29:34;23.30;44.80
56268;DHT22;42175;46.930;9.532;2023-01-01T14:32:14;23.30;44.60
56268;DHT22;42175;46.930;9.532;2023-01-01T14:34:40;23.30;44.50
56268;DHT22;42175;46.930;9.532;2023-01-01T14:37:22;23.30;44.80
56268;DHT22;42175;46.930;9.532;2023-01-01T14:40:15;23.30;45.10
56268;DHT22;42175;46.930;9.532;2023-01-01T14:42:42;23.30;44.90
56268;DHT22;42175;46.930;9.532;2023-01-01T14:45:16;23.30;45.10
56268;DHT22;42175;46.930;9.532;2023-01-01T14:47:47;23.30;45.00
56268;DHT22;42175;46.930;9.532;2023-01-01T14:50:32;23.30;44.80
56268;DHT22;42175;46.930;9.532;2023-01-01T14:53:03;23.30;45.00
56268;DHT22;42175;46.930;9.532;2023-01-01T14:55:43;23.30;45.00
56268;DHT22;42175;46.930;9.532;2023-01-01T14:58:28;23.40;45.10
56268;DHT22;42175;46.930;9.532;2023-01-01T15:01:19;23.30;44.90
56268;DHT22;42175;46.930;9.532;2023-01-01T15:04:03;23.30;44.90
56268;DHT22;42175;46.930;9.532;2023-01-01T15:06:29;23.40;44.80
56268;DHT22;42175;46.930;9.532;2023-01-01T15:08:57;23.30;45.00
56268;DHT22;42175;46.930;9.532;2023-01-01T15:11:23;23.30;44.90
56268;DHT22;42175;46.930;9.532;2023-01-01T15:14:29;23.30;45.10
56268;DHT22;42175;46.930;9.532;2023-01-01T15:17:09;23.40;44.80
56268;DHT22;42175;46.930;9.532;2023-01-01T15:19:36;23.30;44.60
56268;DHT22;42175;46.930;9.532;2023-01-01T15:22:10;23.30;44.90
56268;DHT22;42175;46.930;9.532;2023-01-01T15:24:37;23.40;44.90
56268;DHT22;42175;46.930;9.532;2023-01-01T15:27:05;23.40;45.00
56268;DHT22;42175;46.930;9.532;2023-01-01T15:29:44;23.40;44.70
56268;DHT22;42175;46.930;9.532;2023-01-01T15:32:14;23.40;44.80
56268;DHT22;42175;46.930;9.532;2023-01-01T15:34:52;23.40;44.80
56268;DHT22;42175;46.930;9.532;2023-01-01T15:45:28;23.40;44.50
56268;DHT22;42175;46.930;9.532;2023-01-01T15:53:38;23.40;44.40
56268;DHT22;42175;46.930;9.532;2023-01-01T15:56:09;23.40;44.50
56268;DHT22;42175;46.930;9.532;2023-01-01T15:59:01;23.40;43.50
56268;DHT22;42175;46.930;9.532;2023-01-01T16:01:29;23.40;44.00
56268;DHT22;42175;46.930;9.532;2023-01-01T16:04:13;23.40;44.10
56268;DHT22;42175;46.930;9.532;2023-01-01T16:06:43;23.40;44.40
56268;DHT22;42175;46.930;9.532;2023-01-01T16:09:14;23.40;44.90
56268;DHT22;42175;46.930;9.532;2023-01-01T16:11:41;23.40;44.90
56268;DHT22;42175;46.930;9.532;2023-01-01T16:14:07;23.40;44.90
56268;DHT22;42175;46.930;9.532;2023-01-01T16:16:33;23.40;45.10
56268;DHT22;42175;46.930;9.532;2023-01-01T16:19:00;23.40;45.00
56268;DHT22;42175;46.930;9.532;2023-01-01T16:21:27;23.40;45.10
56268;DHT22;42175;46.930;9.532;2023-01-01T16:23:54;23.40;45.10
56268;DHT22;42175;46.930;9.532;2023-01-01T16:26:21;23.40;44.90
56268;DHT22;42175;46.930;9.532;2023-01-01T16:28:47;23.40;45.20
56268;DHT22;42175;46.930;9.532;2023-01-01T16:31:15;23.40;45.60
56268;DHT22;42175;46.930;9.532;2023-01-01T16:33:43;23.40;45.50
56268;DHT22;42175;46.930;9.532;2023-01-01T16:36:10;23.40;45.30
56268;DHT22;42175;46.930;9.532;2023-01-01T16:38:36;23.40;45.20
56268;DHT22;42175;46.930;9.532;2023-01-01T16:41:02;23.40;44.80
56268;DHT22;42175;46.930;9.532;2023-01-01T16:43:27;23.40;44.30
56268;DHT22;42175;46.930;9.532;2023-01-01T16:45:53;23.50;44.60
56268;DHT22;42175;46.930;9.532;2023-01-01T16:48:19;23.50;44.50
56268;DHT22;42175;46.930;9.532;2023-01-01T16:50:46;23.40;45.20
56268;DHT22;42175;46.930;9.532;2023-01-01T16:53:14;23.40;45.30
56268;DHT22;42175;46.930;9.532;2023-01-01T16:55:40;23.50;45.00
56268;DHT22;42175;46.930;9.532;2023-01-01T16:58:05;23.50;45.20
56268;DHT22;42175;46.930;9.532;2023-01-01T17:00:31;23.40;45.40
56268;DHT22;42175;46.930;9.532;2023-01-01T17:02:57;23.40;45.40
56268;DHT22;42175;46.930;9.532;2023-01-01T17:05:22;23.40;45.20
56268;DHT22;42175;46.930;9.532;2023-01-01T17:07:51;23.40;44.90
56268;DHT22;42175;46.930;9.532;2023-01-01T17:10:16;23.50;44.80
56268;DHT22;42175;46.930;9.532;2023-01-01T17:12:42;23.40;44.30
56268;DHT22;42175;46.930;9.532;2023-01-01T17:15:08;23.50;44.50
56268;DHT22;42175;46.930;9.532;2023-01-01T17:17:34;23.50;44.50
56268;DHT22;42175;46.930;9.532;2023-01-01T17:19:59;23.50;45.30
56268;DHT22;42175;46.930;9.532;2023-01-01T17:22:25;23.40;42.90
56268;DHT22;42175;46.930;9.532;2023-01-01T17:24:51;23.50;43.40
56268;DHT22;42175;46.930;9.532;2023-01-01T17:27:16;23.50;44.00
56268;DHT22;42175;46.930;9.532;2023-01-01T17:29:42;23.50;44.30
56268;DHT22;42175;46.930;9.532;2023-01-01T17:32:08;23.50;44.40
56268;DHT22;42175;46.930;9.532;2023-01-01T17:34:34;23.50;44.80
56268;DHT22;42175;46.930;9.532;2023-01-01T17:36:59;23.50;44.70
56268;DHT22;42175;46.930;9.532;2023-01-01T17:39:25;23.50;45.10
56268;DHT22;42175;46.930;9.532;2023-01-01T17:41:50;23.50;45.10
56268;DHT22;42175;46.930;9.532;2023-01-01T17:44:16;23.50;44.90
56268;DHT22;42175;46.930;9.532;2023-01-01T17:46:42;23.60;45.20
56268;DHT22;42175;46.930;9.532;2023-01-01T17:49:09;23.60;44.90
56268;DHT22;42175;46.930;9.532;2023-01-01T17:51:34;23.60;45.60